sensor_id;sensor_type;location;lat;lon;timestamp;P1;durP1;ratioP1;P2;durP2;ratioP2
15287;SDS011;7745;48.708;9.026;2023-05-20T02:50:38;6.50;;;5.00;;
15287;SDS011;7745;48.708;9.026;2023-05-20T02:53:53;6.47;;;5.57;;
15287;SDS011;7745;48.708;9.026;2023-05-20T04:18:04;6.37;;;5.60;;
15287;SDS011;7745;48.708;9.026;2023-05-20T04:20:30;7.03;;;6.07;;
15287;SDS011;7745;48.708;9.026;2023-05-20T04:22:57;6.90;;;6.10;;
15287;SDS011;7745;48.708;9.026;2023-05-20T04:31:52;6.37;;;5.70;;
15287;SDS011;7745;48.708;9.026;2023-05-20T04:48:21;7.70;;;5.40;;
15287;SDS011;7745;48.708;9.026;2023-05-20T04:51:08;5.73;;;5.20;;
15287;SDS011;7745;48.708;9.026;2023-05-20T04:56:56;8.13;;;5.63;;
15287;SDS011;7745;48.708;9.026;2023-05-20T04:59:45;7.80;;;5.67;;
15287;SDS011;7745;48.708;9.026;2023-05-20T05:09:25;6.77;;;5.20;;
15287;SDS011;7745;48.708;9.026;2023-05-20T05:15:45;5.20;;;4.23;;
15287;SDS011;7745;48.708;9.026;2023-05-20T05:21:34;6.00;;;5.13;;
15287;SDS011;7745;48.708;9.026;2023-05-20T05:27:37;7.37;;;5.17;;
15287;SDS011;7745;48.708;9.026;2023-05-20T05:37:09;6.43;;;5.70;;
15287;SDS011;7745;48.708;9.026;2023-05-20T05:43:33;6.10;;;4.80;;
15287;SDS011;7745;48.708;9.026;2023-05-20T06:23:58;6.40;;;5.73;;
15287;SDS011;7745;48.708;9.026;2023-05-20T06:26:36;6.40;;;4.90;;
15287;SDS011;7745;48.708;9.026;2023-05-20T07:07:04;8.93;;;6.03;;
15287;SDS011;7745;48.708;9.026;2023-05-20T07:35:43;7.53;;;6.73;;
15287;SDS011;7745;48.708;9.026;2023-05-20T07:45:24;7.73;;;6.17;;
15287;SDS011;7745;48.708;9.026;2023-05-20T07:49:50;7.10;;;6.27;;
15287;SDS011;7745;48.708;9.026;2023-05-20T07:52:45;7.33;;;6.60;;
15287;SDS011;7745;48.708;9.026;2023-05-20T07:55:42;6.33;;;5.83;;
15287;SDS011;7745;48.708;9.026;2023-05-20T07:58:11;7.37;;;6.00;;
15287;SDS011;7745;48.708;9.026;2023-05-20T08:00:39;8.50;;;6.40;;
15287;SDS011;7745;48.708;9.026;2023-05-20T08:03:07;7.83;;;6.23;;
15287;SDS011;7745;48.708;9.026;2023-05-20T08:05:35;6.57;;;6.00;;
15287;SDS011;7745;48.708;9.026;2023-05-20T08:08:02;7.13;;;5.80;;
15287;SDS011;7745;48.708;9.026;2023-05-20T08:10:29;8.53;;;6.03;;
15287;SDS011;7745;48.708;9.026;2023-05-20T08:12:56;8.33;;;6.10;;
15287;SDS011;7745;48.708;9.026;2023-05-20T08:15:23;7.37;;;5.97;;
15287;SDS011;7745;48.708;9.026;2023-05-20T08:17:58;6.33;;;5.47;;
15287;SDS011;7745;48.708;9.026;2023-05-20T08:20:28;6.37;;;5.77;;
15287;SDS011;7745;48.708;9.026;2023-05-20T08:22:56;11.80;;;6.17;;
15287;SDS011;7745;48.708;9.026;2023-05-20T08:25:25;7.40;;;6.00;;
15287;SDS011;7745;48.708;9.026;2023-05-20T08:27:52;7.80;;;6.27;;
15287;SDS011;7745;48.708;9.026;2023-05-20T08:30:19;6.93;;;6.20;;
15287;SDS011;7745;48.708;9.026;2023-05-20T08:32:46;6.77;;;5.83;;
15287;SDS011;7745;48.708;9.026;2023-05-20T08:35:15;7.50;;;6.10;;
15287;SDS011;7745;48.708;9.026;2023-05-20T08:37:41;6.37;;;5.77;;
15287;SDS011;7745;48.708;9.026;2023-05-20T08:40:09;6.23;;;5.63;;
15287;SDS011;7745;48.708;9.026;2023-05-20T08:42:39;8.93;;;5.60;;
15287;SDS011;7745;48.708;9.026;2023-05-20T08:45:07;7.10;;;5.63;;
15287;SDS011;7745;48.708;9.026;2023-05-20T08:47:37;8.70;;;5.87;;
15287;SDS011;7745;48.708;9.026;2023-05-20T08:50:06;7.73;;;5.90;;
15287;SDS011;7745;48.708;9.026;2023-05-20T08:52:35;6.80;;;6.10;;
15287;SDS011;7745;48.708;9.026;2023-05-20T08:55:03;6.80;;;6.10;;
15287;SDS011;7745;48.708;9.026;2023-05-20T08:57:33;7.00;;;5.47;;
15287;SDS011;7745;48.708;9.026;2023-05-20T09:00:01;7.17;;;5.77;;
15287;SDS011;7745;48.708;9.026;2023-05-20T09:02:35;6.90;;;6.20;;
15287;SDS011;7745;48.708;9.026;2023-05-20T09:05:02;5.23;;;4.83;;
15287;SDS011;7745;48.708;9.026;2023-05-20T09:07:29;5.87;;;5.27;;
15287;SDS011;7745;48.708;9.026;2023-05-20T09:09:57;5.67;;;5.17;;
15287;SDS011;7745;48.708;9.026;2023-05-20T09:12:24;6.00;;;5.40;;
15287;SDS011;7745;48.708;9.026;2023-05-20T09:14:51;5.77;;;5.23;;
15287;SDS011;7745;48.708;9.026;2023-05-20T09:17:19;6.50;;;5.90;;
15287;SDS011;7745;48.708;9.026;2023-05-20T09:19:46;6.63;;;5.73;;
15287;SDS011;7745;48.708;9.026;2023-05-20T09:22:20;6.80;;;6.10;;
15287;SDS011;7745;48.708;9.026;2023-05-20T09:24:47;5.60;;;5.10;;
15287;SDS011;7745;48.708;9.026;2023-05-20T09:27:16;6.17;;;5.10;;
15287;SDS011;7745;48.708;9.026;2023-05-20T09:29:43;6.93;;;5.73;;
15287;SDS011;7745;48.708;9.026;2023-05-20T09:32:10;6.00;;;5.27;;
15287;SDS011;7745;48.708;9.026;2023-05-20T09:34:37;7.33;;;5.17;;
15287;SDS011;7745;48.708;9.026;2023-05-20T09:37:05;5.83;;;5.23;;
15287;SDS011;7745;48.708;9.026;2023-05-20T09:39:35;7.10;;;5.30;;
15287;SDS011;7745;48.708;9.026;2023-05-20T09:42:20;7.40;;;5.53;;
15287;SDS011;7745;48.708;9.026;2023-05-20T09:44:50;6.00;;;5.40;;
15287;SDS011;7745;48.708;9.026;2023-05-20T09:47:18;6.10;;;5.20;;
15287;SDS011;7745;48.708;9.026;2023-05-20T09:49:51;5.67;;;4.87;;
15287;SDS011;7745;48.708;9.026;2023-05-20T10:23:07;5.73;;;5.23;;
15287;SDS011;7745;48.708;9.026;2023-05-20T10:56:53;5.93;;;5.43;;
15287;SDS011;7745;48.708;9.026;2023-05-20T10:59:21;8.27;;;5.30;;
15287;SDS011;7745;48.708;9.026;2023-05-20T11:01:49;6.00;;;4.80;;
15287;SDS011;7745;48.708;9.026;2023-05-20T11:04:37;5.63;;;5.00;;
15287;SDS011;7745;48.708;9.026;2023-05-20T11:17:38;7.93;;;4.83;;
15287;SDS011;7745;48.708;9.026;2023-05-20T11:23:18;5.28;;;4.78;;
15287;SDS011;7745;48.708;9.026;2023-05-20T11:25:48;5.60;;;5.10;;
15287;SDS011;7745;48.708;9.026;2023-05-20T11:28:15;6.05;;;4.95;;
15287;SDS011;7745;48.708;9.026;2023-05-20T11:30:45;4.68;;;4.28;;
15287;SDS011;7745;48.708;9.026;2023-05-20T11:33:14;6.30;;;4.75;;
15287;SDS011;7745;48.708;9.026;2023-05-20T11:35:43;5.32;;;4.82;;
15287;SDS011;7745;48.708;9.026;2023-05-20T11:38:11;6.53;;;4.28;;
15287;SDS011;7745;48.708;9.026;2023-05-20T11:40:41;6.32;;;4.68;;
15287;SDS011;7745;48.708;9.026;2023-05-20T11:43:09;5.22;;;4.18;;
15287;SDS011;7745;48.708;9.026;2023-05-20T11:45:37;4.82;;;4.18;;
15287;SDS011;7745;48.708;9.026;2023-05-20T11:48:05;5.25;;;4.13;;
15287;SDS011;7745;48.708;9.026;2023-05-20T11:50:38;4.38;;;3.97;;
15287;SDS011;7745;48.708;9.026;2023-05-20T11:53:06;9.02;;;4.80;;
15287;SDS011;7745;48.708;9.026;2023-05-20T11:55:34;5.50;;;4.60;;
15287;SDS011;7745;48.708;9.026;2023-05-20T11:58:10;6.30;;;4.75;;
15287;SDS011;7745;48.708;9.026;2023-05-20T12:00:40;5.32;;;4.90;;
15287;SDS011;7745;48.708;9.026;2023-05-20T12:03:07;5.57;;;4.18;;
15287;SDS011;7745;48.708;9.026;2023-05-20T12:05:34;8.23;;;4.90;;
15287;SDS011;7745;48.708;9.026;2023-05-20T12:08:02;4.55;;;4.15;;
15287;SDS011;7745;48.708;9.026;2023-05-20T12:10:29;6.32;;;4.50;;
15287;SDS011;7745;48.708;9.026;2023-05-20T12:12:56;4.95;;;4.25;;
15287;SDS011;7745;48.708;9.026;2023-05-20T12:15:23;7.22;;;4.50;;
15287;SDS011;7745;48.708;9.026;2023-05-20T12:17:50;5.13;;;4.40;;
15287;SDS011;7745;48.708;9.026;2023-05-20T12:20:20;5.45;;;4.32;;
15287;SDS011;7745;48.708;9.026;2023-05-20T12:22:48;4.93;;;4.43;;
15287;SDS011;7745;48.708;9.026;2023-05-20T12:25:17;5.55;;;4.90;;
15287;SDS011;7745;48.708;9.026;2023-05-20T12:27:46;6.18;;;4.80;;
15287;SDS011;7745;48.708;9.026;2023-05-20T12:30:14;5.35;;;4.70;;
15287;SDS011;7745;48.708;9.026;2023-05-20T12:32:41;5.25;;;4.80;;
15287;SDS011;7745;48.708;9.026;2023-05-20T12:35:08;4.43;;;4.03;;
15287;SDS011;7745;48.708;9.026;2023-05-20T12:37:35;5.38;;;4.38;;
15287;SDS011;7745;48.708;9.026;2023-05-20T12:40:04;5.22;;;4.47;;
15287;SDS011;7745;48.708;9.026;2023-05-20T12:42:33;4.57;;;3.90;;
15287;SDS011;7745;48.708;9.026;2023-05-20T12:45:01;6.88;;;4.35;;
15287;SDS011;7745;48.708;9.026;2023-05-20T12:47:28;5.45;;;4.35;;
15287;SDS011;7745;48.708;9.026;2023-05-20T12:49:55;4.53;;;4.07;;
15287;SDS011;7745;48.708;9.026;2023-05-20T12:52:22;4.88;;;4.45;;
15287;SDS011;7745;48.708;9.026;2023-05-20T12:54:48;5.03;;;4.53;;
15287;SDS011;7745;48.708;9.026;2023-05-20T12:57:15;4.57;;;4.18;;
15287;SDS011;7745;48.708;9.026;2023-05-20T12:59:44;4.70;;;4.30;;
15287;SDS011;7745;48.708;9.026;2023-05-20T13:02:11;4.60;;;4.20;;
15287;SDS011;7745;48.708;9.026;2023-05-20T13:04:38;4.72;;;4.22;;
15287;SDS011;7745;48.708;9.026;2023-05-20T13:07:04;5.00;;;4.55;;
15287;SDS011;7745;48.708;9.026;2023-05-20T13:09:31;4.50;;;4.10;;
15287;SDS011;7745;48.708;9.026;2023-05-20T13:11:58;5.30;;;4.07;;
15287;SDS011;7745;48.708;9.026;2023-05-20T13:14:25;4.45;;;4.05;;
15287;SDS011;7745;48.708;9.026;2023-05-20T13:16:53;8.43;;;4.28;;
15287;SDS011;7745;48.708;9.026;2023-05-20T13:19:20;6.82;;;4.20;;
15287;SDS011;7745;48.708;9.026;2023-05-20T13:21:47;5.88;;;4.22;;
15287;SDS011;7745;48.708;9.026;2023-05-20T13:24:14;4.68;;;4.03;;
15287;SDS011;7745;48.708;9.026;2023-05-20T13:26:41;5.03;;;3.75;;
15287;SDS011;7745;48.708;9.026;2023-05-20T13:29:09;5.25;;;4.28;;
15287;SDS011;7745;48.708;9.026;2023-05-20T13:31:36;4.85;;;4.15;;
15287;SDS011;7745;48.708;9.026;2023-05-20T13:34:05;4.25;;;3.85;;
15287;SDS011;7745;48.708;9.026;2023-05-20T13:36:32;5.45;;;4.47;;
15287;SDS011;7745;48.708;9.026;2023-05-20T13:38:59;4.57;;;4.18;;
15287;SDS011;7745;48.708;9.026;2023-05-20T13:41:25;6.05;;;4.32;;
15287;SDS011;7745;48.708;9.026;2023-05-20T13:43:53;5.93;;;3.58;;
15287;SDS011;7745;48.708;9.026;2023-05-20T13:46:20;5.30;;;4.13;;
15287;SDS011;7745;48.708;9.026;2023-05-20T13:48:47;4.93;;;3.80;;
15287;SDS011;7745;48.708;9.026;2023-05-20T13:51:15;4.15;;;3.75;;
15287;SDS011;7745;48.708;9.026;2023-05-20T13:53:42;4.47;;;3.60;;
15287;SDS011;7745;48.708;9.026;2023-05-20T13:56:08;4.03;;;3.60;;
15287;SDS011;7745;48.708;9.026;2023-05-20T13:58:35;4.53;;;3.67;;
15287;SDS011;7745;48.708;9.026;2023-05-20T14:01:03;3.55;;;3.25;;
15287;SDS011;7745;48.708;9.026;2023-05-20T14:03:30;5.85;;;3.95;;
15287;SDS011;7745;48.708;9.026;2023-05-20T14:05:58;3.95;;;3.65;;
15287;SDS011;7745;48.708;9.026;2023-05-20T14:08:27;4.20;;;3.80;;
15287;SDS011;7745;48.708;9.026;2023-05-20T14:10:53;3.60;;;3.30;;
15287;SDS011;7745;48.708;9.026;2023-05-20T14:13:20;3.67;;;3.35;;
15287;SDS011;7745;48.708;9.026;2023-05-20T14:15:47;6.53;;;3.50;;
15287;SDS011;7745;48.708;9.026;2023-05-20T14:18:14;7.90;;;3.45;;
15287;SDS011;7745;48.708;9.026;2023-05-20T14:20:41;4.45;;;3.63;;
15287;SDS011;7745;48.708;9.026;2023-05-20T14:23:08;3.50;;;3.20;;
15287;SDS011;7745;48.708;9.026;2023-05-20T14:25:36;4.13;;;3.70;;
15287;SDS011;7745;48.708;9.026;2023-05-20T14:28:03;4.25;;;3.72;;
15287;SDS011;7745;48.708;9.026;2023-05-20T14:30:30;3.53;;;3.22;;
15287;SDS011;7745;48.708;9.026;2023-05-20T14:32:57;4.78;;;3.67;;
15287;SDS011;7745;48.708;9.026;2023-05-20T14:35:24;3.50;;;3.20;;
15287;SDS011;7745;48.708;9.026;2023-05-20T14:37:51;4.85;;;3.38;;
15287;SDS011;7745;48.708;9.026;2023-05-20T14:40:18;5.70;;;3.28;;
15287;SDS011;7745;48.708;9.026;2023-05-20T14:42:46;4.78;;;3.50;;
15287;SDS011;7745;48.708;9.026;2023-05-20T14:45:13;3.92;;;3.53;;
15287;SDS011;7745;48.708;9.026;2023-05-20T14:47:40;5.50;;;3.50;;
15287;SDS011;7745;48.708;9.026;2023-05-20T14:50:06;3.65;;;3.17;;
15287;SDS011;7745;48.708;9.026;2023-05-20T14:52:34;5.90;;;3.92;;
15287;SDS011;7745;48.708;9.026;2023-05-20T14:55:00;4.13;;;3.58;;
15287;SDS011;7745;48.708;9.026;2023-05-20T14:57:27;12.00;;;3.80;;
15287;SDS011;7745;48.708;9.026;2023-05-20T14:59:56;4.32;;;3.53;;
15287;SDS011;7745;48.708;9.026;2023-05-20T15:02:22;3.88;;;3.58;;
15287;SDS011;7745;48.708;9.026;2023-05-20T15:04:49;3.85;;;3.47;;
15287;SDS011;7745;48.708;9.026;2023-05-20T15:07:16;4.55;;;3.33;;
15287;SDS011;7745;48.708;9.026;2023-05-20T15:09:43;3.58;;;3.28;;
15287;SDS011;7745;48.708;9.026;2023-05-20T15:12:09;4.22;;;3.10;;
15287;SDS011;7745;48.708;9.026;2023-05-20T15:14:36;5.97;;;3.25;;
15287;SDS011;7745;48.708;9.026;2023-05-20T15:17:04;3.47;;;3.17;;
15287;SDS011;7745;48.708;9.026;2023-05-20T15:19:32;3.60;;;3.30;;
15287;SDS011;7745;48.708;9.026;2023-05-20T15:22:00;3.00;;;2.78;;
15287;SDS011;7745;48.708;9.026;2023-05-20T15:24:27;3.20;;;2.90;;
15287;SDS011;7745;48.708;9.026;2023-05-20T15:26:53;3.58;;;2.90;;
15287;SDS011;7745;48.708;9.026;2023-05-20T15:29:20;3.70;;;3.00;;
15287;SDS011;7745;48.708;9.026;2023-05-20T15:31:47;3.53;;;3.22;;
15287;SDS011;7745;48.708;9.026;2023-05-20T15:34:16;5.95;;;3.40;;
15287;SDS011;7745;48.708;9.026;2023-05-20T15:36:43;3.38;;;3.08;;
15287;SDS011;7745;48.708;9.026;2023-05-20T15:39:10;3.88;;;3.10;;
15287;SDS011;7745;48.708;9.026;2023-05-20T15:41:37;4.63;;;3.00;;
15287;SDS011;7745;48.708;9.026;2023-05-20T15:44:06;3.90;;;3.50;;
15287;SDS011;7745;48.708;9.026;2023-05-20T15:46:33;4.82;;;3.35;;
15287;SDS011;7745;48.708;9.026;2023-05-20T15:48:59;3.15;;;2.85;;
15287;SDS011;7745;48.708;9.026;2023-05-20T15:51:28;2.97;;;2.67;;
15287;SDS011;7745;48.708;9.026;2023-05-20T15:53:54;4.82;;;3.20;;
15287;SDS011;7745;48.708;9.026;2023-05-20T15:56:21;3.38;;;3.08;;
15287;SDS011;7745;48.708;9.026;2023-05-20T15:58:48;3.80;;;3.25;;
15287;SDS011;7745;48.708;9.026;2023-05-20T16:01:15;3.40;;;3.10;;
15287;SDS011;7745;48.708;9.026;2023-05-20T16:03:42;4.43;;;3.20;;
15287;SDS011;7745;48.708;9.026;2023-05-20T16:06:09;6.47;;;3.35;;
15287;SDS011;7745;48.708;9.026;2023-05-20T16:08:38;3.58;;;3.10;;
15287;SDS011;7745;48.708;9.026;2023-05-20T16:11:05;3.45;;;3.15;;
15287;SDS011;7745;48.708;9.026;2023-05-20T16:13:32;4.00;;;3.60;;
15287;SDS011;7745;48.708;9.026;2023-05-20T16:15:59;4.05;;;3.20;;
15287;SDS011;7745;48.708;9.026;2023-05-20T16:18:26;4.70;;;2.83;;
15287;SDS011;7745;48.708;9.026;2023-05-20T16:20:54;4.80;;;3.20;;
15287;SDS011;7745;48.708;9.026;2023-05-20T16:23:21;3.75;;;3.35;;
15287;SDS011;7745;48.708;9.026;2023-05-20T16:25:49;3.90;;;3.10;;
15287;SDS011;7745;48.708;9.026;2023-05-20T16:28:16;5.15;;;3.30;;
15287;SDS011;7745;48.708;9.026;2023-05-20T16:30:43;4.07;;;3.67;;
15287;SDS011;7745;48.708;9.026;2023-05-20T16:33:09;6.35;;;3.60;;
15287;SDS011;7745;48.708;9.026;2023-05-20T16:35:37;5.63;;;3.33;;
15287;SDS011;7745;48.708;9.026;2023-05-20T16:38:03;4.28;;;3.30;;
15287;SDS011;7745;48.708;9.026;2023-05-20T16:40:30;5.97;;;3.70;;
15287;SDS011;7745;48.708;9.026;2023-05-20T16:42:58;6.13;;;3.50;;
15287;SDS011;7745;48.708;9.026;2023-05-20T16:45:26;5.00;;;3.58;;
15287;SDS011;7745;48.708;9.026;2023-05-20T16:47:53;3.30;;;3.00;;
15287;SDS011;7745;48.708;9.026;2023-05-20T16:50:21;4.95;;;3.05;;
15287;SDS011;7745;48.708;9.026;2023-05-20T16:52:48;3.83;;;3.42;;
15287;SDS011;7745;48.708;9.026;2023-05-20T16:55:15;6.68;;;3.38;;
15287;SDS011;7745;48.708;9.026;2023-05-20T16:57:42;4.40;;;3.47;;
15287;SDS011;7745;48.708;9.026;2023-05-20T17:00:11;5.95;;;3.88;;
15287;SDS011;7745;48.708;9.026;2023-05-20T17:02:38;7.50;;;4.05;;
15287;SDS011;7745;48.708;9.026;2023-05-20T17:05:05;3.97;;;3.63;;
15287;SDS011;7745;48.708;9.026;2023-05-20T17:07:32;5.15;;;3.63;;
15287;SDS011;7745;48.708;9.026;2023-05-20T17:09:59;4.35;;;3.92;;
15287;SDS011;7745;48.708;9.026;2023-05-20T17:12:26;3.88;;;3.50;;
15287;SDS011;7745;48.708;9.026;2023-05-20T17:14:53;6.35;;;3.95;;
15287;SDS011;7745;48.708;9.026;2023-05-20T17:17:22;5.57;;;3.63;;
15287;SDS011;7745;48.708;9.026;2023-05-20T17:19:50;4.68;;;4.00;;
15287;SDS011;7745;48.708;9.026;2023-05-20T17:22:20;9.43;;;5.13;;
15287;SDS011;7745;48.708;9.026;2023-05-20T17:24:59;6.15;;;4.70;;
15287;SDS011;7745;48.708;9.026;2023-05-20T17:27:28;6.95;;;4.65;;
15287;SDS011;7745;48.708;9.026;2023-05-20T17:30:02;5.90;;;5.30;;
15287;SDS011;7745;48.708;9.026;2023-05-20T17:32:31;6.72;;;4.97;;
15287;SDS011;7745;48.708;9.026;2023-05-20T17:35:09;5.80;;;5.20;;
15287;SDS011;7745;48.708;9.026;2023-05-20T17:37:39;6.72;;;5.95;;
15287;SDS011;7745;48.708;9.026;2023-05-20T17:40:06;7.20;;;6.15;;
15287;SDS011;7745;48.708;9.026;2023-05-20T17:42:38;8.85;;;6.30;;
15287;SDS011;7745;48.708;9.026;2023-05-20T17:45:14;6.15;;;5.63;;
15287;SDS011;7745;48.708;9.026;2023-05-20T17:48:21;6.65;;;5.95;;
15287;SDS011;7745;48.708;9.026;2023-05-20T17:51:23;7.70;;;6.40;;
15287;SDS011;7745;48.708;9.026;2023-05-20T17:53:59;9.43;;;6.10;;
15287;SDS011;7745;48.708;9.026;2023-05-20T17:56:52;8.27;;;6.25;;
15287;SDS011;7745;48.708;9.026;2023-05-20T17:59:51;10.60;;;6.38;;
15287;SDS011;7745;48.708;9.026;2023-05-20T18:02:18;7.10;;;6.40;;
15287;SDS011;7745;48.708;9.026;2023-05-20T18:05:14;9.60;;;6.63;;
15287;SDS011;7745;48.708;9.026;2023-05-20T18:08:17;7.03;;;6.32;;
15287;SDS011;7745;48.708;9.026;2023-05-20T18:11:20;7.13;;;6.40;;
15287;SDS011;7745;48.708;9.026;2023-05-20T18:14:19;8.77;;;7.13;;
15287;SDS011;7745;48.708;9.026;2023-05-20T18:16:55;7.27;;;6.57;;
15287;SDS011;7745;48.708;9.026;2023-05-20T18:19:38;7.20;;;6.50;;
15287;SDS011;7745;48.708;9.026;2023-05-20T18:22:07;7.57;;;6.80;;
15287;SDS011;7745;48.708;9.026;2023-05-20T18:24:41;7.37;;;6.67;;
15287;SDS011;7745;48.708;9.026;2023-05-20T18:27:30;8.73;;;6.87;;
